createdAt,value
2018-07-23T00:00:41.332Z,21.84
2018-07-23T00:04:05.831Z,22.06
2018-07-23T00:07:30.307Z,21.90
2018-07-23T00:10:54.751Z,21.95
2018-07-23T00:14:19.217Z,22.03
2018-07-23T00:17:43.661Z,21.93
2018-07-23T00:21:08.154Z,21.74
2018-07-23T00:24:32.621Z,21.71
2018-07-23T00:27:57.114Z,21.82
2018-07-23T00:31:21.557Z,21.68
2018-07-23T00:34:46.035Z,21.61
2018-07-23T00:38:10.497Z,21.52
2018-07-23T00:41:34.948Z,21.62
2018-07-23T00:44:59.427Z,21.49
2018-07-23T00:48:23.885Z,21.50
2018-07-23T00:51:48.353Z,21.44
2018-07-23T00:55:12.802Z,21.59
2018-07-23T00:58:37.339Z,21.43
2018-07-23T01:02:01.772Z,21.45
2018-07-23T01:05:26.220Z,21.33
2018-07-23T01:08:50.691Z,21.27
2018-07-23T01:12:33.320Z,21.18
2018-07-23T01:15:57.788Z,21.02
2018-07-23T01:19:22.309Z,21.06
2018-07-23T01:22:46.780Z,21.05
2018-07-23T01:26:11.219Z,21.04
2018-07-23T01:29:35.688Z,20.91
2018-07-23T01:33:00.163Z,20.98
2018-07-23T01:36:24.616Z,20.84
2018-07-23T01:39:49.078Z,20.92
2018-07-23T01:43:13.529Z,20.78
2018-07-23T01:46:37.992Z,20.55
2018-07-23T01:50:02.432Z,20.72
2018-07-23T01:53:26.890Z,20.66
2018-07-23T01:56:51.397Z,20.61
2018-07-23T02:00:15.864Z,20.47
2018-07-23T02:03:41.464Z,20.46
2018-07-23T02:07:06.882Z,20.48
2018-07-23T02:10:31.400Z,20.34
2018-07-23T02:13:55.871Z,20.19
2018-07-23T02:17:20.305Z,20.17
2018-07-23T02:20:44.814Z,20.25
2018-07-23T02:24:09.323Z,20.15
2018-07-23T02:27:33.956Z,20.18
2018-07-23T02:30:58.422Z,20.27
2018-07-23T02:34:22.867Z,20.20
2018-07-23T02:37:47.339Z,20.18
2018-07-23T02:41:11.875Z,20.23
2018-07-23T02:44:36.359Z,20.25
2018-07-23T02:48:00.838Z,20.24
2018-07-23T02:51:25.300Z,20.18
2018-07-23T02:54:49.752Z,20.23
2018-07-23T02:58:14.232Z,20.35
2018-07-23T03:01:38.743Z,20.35
2018-07-23T03:05:03.227Z,20.38
2018-07-23T03:08:27.688Z,20.35
2018-07-23T03:11:52.129Z,20.31
2018-07-23T03:15:16.620Z,20.28
2018-07-23T03:18:41.123Z,20.40
2018-07-23T03:22:05.581Z,20.47
2018-07-23T03:25:30.045Z,20.39
2018-07-23T03:28:54.474Z,20.36
2018-07-23T03:32:18.910Z,20.28
2018-07-23T03:35:43.366Z,20.25
2018-07-23T03:39:10.016Z,20.17
2018-07-23T03:42:34.478Z,20.18
2018-07-23T03:45:58.972Z,20.15
2018-07-23T03:49:23.434Z,20.05
2018-07-23T03:52:47.954Z,20.24
2018-07-23T03:56:12.447Z,20.07
2018-07-23T03:59:36.942Z,20.25
2018-07-23T04:03:01.404Z,20.11
2018-07-23T04:06:25.862Z,19.94
2018-07-23T04:09:50.317Z,20.12
2018-07-23T04:13:14.772Z,20.08
2018-07-23T04:16:39.228Z,20.15
2018-07-23T04:20:03.836Z,20.21
2018-07-23T04:23:28.287Z,20.34
2018-07-23T04:26:52.856Z,20.22
2018-07-23T04:30:17.328Z,20.23
2018-07-23T04:33:41.789Z,20.34
2018-07-23T04:37:06.285Z,20.43
2018-07-23T04:40:30.788Z,20.49
2018-07-23T04:43:55.267Z,20.59
2018-07-23T04:47:19.705Z,20.74
2018-07-23T04:50:44.203Z,20.96
2018-07-23T04:54:08.707Z,21.10
2018-07-23T04:57:33.296Z,21.29
2018-07-23T05:00:57.943Z,21.45
2018-07-23T05:04:22.406Z,21.52
2018-07-23T05:07:46.924Z,21.72
2018-07-23T05:11:11.363Z,21.89
2018-07-23T05:14:35.859Z,22.11
2018-07-23T05:18:00.334Z,22.47
2018-07-23T05:21:24.847Z,22.66
2018-07-23T05:24:49.313Z,22.84
2018-07-23T05:28:13.809Z,23.17
2018-07-23T05:31:38.315Z,23.26
2018-07-23T05:35:02.835Z,23.55
2018-07-23T05:38:27.125Z,23.69
2018-07-23T05:41:51.607Z,23.87
2018-07-23T05:45:16.180Z,23.83
2018-07-23T05:48:40.639Z,23.75
2018-07-23T05:52:05.114Z,23.63
2018-07-23T05:55:29.558Z,23.65
2018-07-23T05:58:54.080Z,23.70
2018-07-23T06:02:18.543Z,23.66
2018-07-23T06:05:43.032Z,23.78
2018-07-23T06:09:09.832Z,23.75
2018-07-23T06:13:08.426Z,23.73
2018-07-23T06:16:33.124Z,23.77
2018-07-23T06:19:57.606Z,24.11
2018-07-23T06:23:22.077Z,24.40
2018-07-23T06:26:46.556Z,24.54
2018-07-23T06:30:12.248Z,24.48
2018-07-23T06:33:36.787Z,24.59
2018-07-23T06:37:01.273Z,24.81
2018-07-23T06:40:25.755Z,25.23
2018-07-23T06:43:50.221Z,25.78
2018-07-23T06:47:14.677Z,25.89
2018-07-23T06:50:39.256Z,26.02
2018-07-23T06:54:03.776Z,26.27
2018-07-23T06:57:28.291Z,26.63
2018-07-23T07:00:52.770Z,26.85
2018-07-23T07:04:20.245Z,26.66
2018-07-23T07:07:44.699Z,26.97
2018-07-23T07:11:09.187Z,27.18
2018-07-23T07:14:33.668Z,27.17
2018-07-23T07:17:58.186Z,26.92
2018-07-23T07:21:22.703Z,26.80
2018-07-23T07:24:47.199Z,26.86
2018-07-23T07:28:11.723Z,27.07
2018-07-23T07:31:36.250Z,27.23
2018-07-23T07:35:00.693Z,27.33
2018-07-23T07:38:25.262Z,27.01
2018-07-23T07:41:49.683Z,26.91
2018-07-23T07:45:14.178Z,27.78
2018-07-23T07:48:38.667Z,28.41
2018-07-23T07:52:03.217Z,29.17
2018-07-23T07:55:27.664Z,29.19
2018-07-23T07:58:52.169Z,29.33
2018-07-23T08:02:16.686Z,29.46
2018-07-23T08:05:41.147Z,29.64
2018-07-23T08:09:08.638Z,29.36
2018-07-23T08:12:33.171Z,29.40
2018-07-23T08:15:57.590Z,29.47
2018-07-23T08:19:22.085Z,30.23
2018-07-23T08:22:46.549Z,29.85
2018-07-23T08:26:10.992Z,29.58
2018-07-23T08:29:35.499Z,29.62
2018-07-23T08:33:00.012Z,30.02
2018-07-23T08:36:24.494Z,29.98
2018-07-23T08:39:48.975Z,29.85
2018-07-23T08:43:13.424Z,30.15
2018-07-23T08:46:37.885Z,30.70
2018-07-23T08:50:02.339Z,30.47
2018-07-23T08:53:30.337Z,30.75
2018-07-23T08:56:54.790Z,31.20
2018-07-23T09:00:19.282Z,31.08
2018-07-23T09:03:43.722Z,31.27
2018-07-23T09:07:08.142Z,31.78
2018-07-23T09:10:32.627Z,31.58
2018-07-23T09:13:57.121Z,31.74
2018-07-23T09:17:21.577Z,32.23
2018-07-23T09:20:46.012Z,32.46
2018-07-23T09:24:10.472Z,31.65
2018-07-23T09:27:35.111Z,32.73
2018-07-23T09:30:59.657Z,32.60
2018-07-23T09:34:24.023Z,32.03
2018-07-23T09:37:48.492Z,32.30
2018-07-23T09:41:12.929Z,32.72
2018-07-23T09:44:37.400Z,31.01
2018-07-23T09:48:01.872Z,31.73
2018-07-23T09:51:26.419Z,32.27
2018-07-23T09:54:50.870Z,32.33
2018-07-23T09:58:15.326Z,32.55
2018-07-23T10:01:39.839Z,31.81
2018-07-23T10:05:04.467Z,32.50
2018-07-23T10:08:28.942Z,32.35
2018-07-23T10:11:53.464Z,31.98
2018-07-23T10:15:17.958Z,32.61
2018-07-23T10:18:42.446Z,32.74
2018-07-23T10:22:07.001Z,33.60
2018-07-23T10:25:31.447Z,34.14
2018-07-23T10:28:55.919Z,34.42
2018-07-23T10:32:20.373Z,35.78
2018-07-23T10:35:44.959Z,36.70
2018-07-23T10:39:10.386Z,36.47
2018-07-23T10:42:34.908Z,36.21
2018-07-23T10:45:59.394Z,36.61
2018-07-23T10:49:23.849Z,37.83
2018-07-23T10:52:48.365Z,39.70
2018-07-23T10:56:12.843Z,41.31
2018-07-23T10:59:37.346Z,42.85
2018-07-23T11:03:01.811Z,43.43
2018-07-23T11:06:26.355Z,44.20
2018-07-23T11:09:50.839Z,44.00
2018-07-23T11:13:15.300Z,43.55
2018-07-23T11:16:39.784Z,44.11
2018-07-23T11:20:04.376Z,43.19
2018-07-23T11:23:28.867Z,41.01
2018-07-23T11:26:53.534Z,41.38
2018-07-23T11:30:18.032Z,42.40
2018-07-23T11:33:42.527Z,41.10
2018-07-23T11:37:06.999Z,39.16
2018-07-23T11:40:31.508Z,38.83
2018-07-23T11:43:55.939Z,41.27
2018-07-23T11:47:20.395Z,40.80
2018-07-23T11:50:44.909Z,40.98
2018-07-23T11:54:12.496Z,40.44
2018-07-23T11:57:36.949Z,43.03
2018-07-23T12:01:01.737Z,45.95
2018-07-23T12:04:26.269Z,47.11
2018-07-23T12:07:50.649Z,45.95
2018-07-23T12:11:15.116Z,46.45
2018-07-23T12:14:39.521Z,47.26
2018-07-23T12:18:03.991Z,45.52
2018-07-23T12:21:28.452Z,43.53
2018-07-23T12:24:52.909Z,43.02
2018-07-23T12:28:17.529Z,45.36
2018-07-23T12:31:41.978Z,47.18
2018-07-23T12:35:06.583Z,45.65
2018-07-23T12:38:31.050Z,45.19
2018-07-23T12:41:55.563Z,46.11
2018-07-23T12:45:20.053Z,45.01
2018-07-23T12:48:44.547Z,44.42
2018-07-23T12:52:09.180Z,47.15
2018-07-23T12:55:33.725Z,48.15
2018-07-23T12:58:58.263Z,47.79
2018-07-23T13:02:22.704Z,47.40
2018-07-23T13:05:47.192Z,48.61
2018-07-23T13:09:13.034Z,48.55
2018-07-23T13:12:37.511Z,48.45
2018-07-23T13:16:01.994Z,49.96
2018-07-23T13:19:26.474Z,48.49
2018-07-23T13:22:50.946Z,47.12
2018-07-23T13:26:15.478Z,43.92
2018-07-23T13:29:39.974Z,42.10
2018-07-23T13:33:04.439Z,42.86
2018-07-23T13:36:28.917Z,42.63
2018-07-23T13:39:53.432Z,44.58
2018-07-23T13:43:17.953Z,44.95
2018-07-23T13:46:42.501Z,45.58
2018-07-23T13:50:07.096Z,46.19
2018-07-23T13:53:31.608Z,46.44
2018-07-23T13:56:55.803Z,43.82
2018-07-23T14:00:20.342Z,44.38
2018-07-23T14:03:44.892Z,45.93
2018-07-23T14:07:09.393Z,46.11
2018-07-23T14:10:33.906Z,44.15
2018-07-23T14:13:58.377Z,45.39
2018-07-23T14:17:22.908Z,44.77
2018-07-23T14:20:47.445Z,43.11
2018-07-23T14:24:11.936Z,41.60
2018-07-23T14:27:36.418Z,40.05
2018-07-23T14:31:00.903Z,40.22
2018-07-23T14:34:25.399Z,42.99
2018-07-23T14:37:49.901Z,41.98
2018-07-23T14:41:14.421Z,43.67
2018-07-23T14:44:38.909Z,44.61
2018-07-23T14:48:03.413Z,45.51
2018-07-23T14:51:28.028Z,46.73
2018-07-23T14:54:52.489Z,47.77
2018-07-23T14:58:17.042Z,47.82
2018-07-23T15:01:41.540Z,46.57
2018-07-23T15:05:06.535Z,45.68
2018-07-23T15:08:31.039Z,44.27
2018-07-23T15:11:55.537Z,44.86
2018-07-23T15:15:20.021Z,43.13
2018-07-23T15:18:44.501Z,42.28
2018-07-23T15:22:09.069Z,42.54
2018-07-23T15:25:33.564Z,41.26
2018-07-23T15:28:58.065Z,39.97
2018-07-23T15:32:22.511Z,41.42
2018-07-23T15:35:46.989Z,41.90
2018-07-23T15:39:11.877Z,40.71
2018-07-23T15:42:36.386Z,41.20
2018-07-23T15:46:00.941Z,42.57
2018-07-23T15:49:25.347Z,44.03
2018-07-23T15:52:49.865Z,44.24
2018-07-23T15:56:14.560Z,45.32
2018-07-23T15:59:39.021Z,45.42
2018-07-23T16:03:03.486Z,46.13
2018-07-23T16:06:28.013Z,46.30
2018-07-23T16:09:52.520Z,45.53
2018-07-23T16:13:17.011Z,44.24
2018-07-23T16:16:41.477Z,44.68
2018-07-23T16:20:06.603Z,43.91
2018-07-23T16:23:31.032Z,41.94
2018-07-23T16:26:55.440Z,41.52
2018-07-23T16:30:19.843Z,39.43
2018-07-23T16:33:44.367Z,37.90
2018-07-23T16:37:08.849Z,38.16
2018-07-23T16:40:33.387Z,39.10
2018-07-23T16:43:57.896Z,39.38
2018-07-23T16:47:22.355Z,39.54
2018-07-23T16:50:46.783Z,40.30
2018-07-23T16:54:11.284Z,39.49
2018-07-23T16:57:35.775Z,40.89
2018-07-23T17:01:00.245Z,40.38
2018-07-23T17:04:24.672Z,40.90
2018-07-23T17:07:49.125Z,40.49
2018-07-23T17:11:13.538Z,39.82
2018-07-23T17:14:38.002Z,39.68
2018-07-23T17:18:02.518Z,39.29
2018-07-23T17:21:26.900Z,39.06
2018-07-23T17:24:51.334Z,38.37
2018-07-23T17:28:15.756Z,37.85
2018-07-23T17:31:40.254Z,37.52
2018-07-23T17:35:04.745Z,37.23
2018-07-23T17:38:29.170Z,36.79
2018-07-23T17:41:53.611Z,35.92
2018-07-23T17:45:18.056Z,36.03
2018-07-23T17:48:42.490Z,36.10
2018-07-23T17:52:06.976Z,35.52
2018-07-23T17:55:31.397Z,35.35
2018-07-23T17:58:55.978Z,34.82
2018-07-23T18:02:20.578Z,34.93
2018-07-23T18:05:45.040Z,35.08
2018-07-23T18:09:11.734Z,34.92
2018-07-23T18:12:36.156Z,35.28
2018-07-23T18:16:00.602Z,34.98
2018-07-23T18:19:31.588Z,35.16
2018-07-23T18:22:55.979Z,35.09
2018-07-23T18:26:20.427Z,34.86
2018-07-23T18:29:44.921Z,34.53
2018-07-23T18:33:09.342Z,34.42
2018-07-23T18:36:33.542Z,34.08
2018-07-23T18:39:57.973Z,33.74
2018-07-23T18:43:22.406Z,33.54
2018-07-23T18:46:46.894Z,33.23
2018-07-23T18:50:11.319Z,33.04
2018-07-23T18:53:35.758Z,32.82
2018-07-23T18:57:01.634Z,32.71
2018-07-23T19:00:26.076Z,32.71
2018-07-23T19:03:50.519Z,31.99
2018-07-23T19:07:14.972Z,32.21
2018-07-23T19:10:39.434Z,31.89
2018-07-23T19:14:03.962Z,31.78
2018-07-23T19:17:35.063Z,31.52
2018-07-23T19:20:59.519Z,31.36
2018-07-23T19:24:23.995Z,31.27
2018-07-23T19:27:48.444Z,30.95
2018-07-23T19:31:12.886Z,30.79
2018-07-23T19:34:37.359Z,30.52
2018-07-23T19:38:01.765Z,30.50
2018-07-23T19:41:26.967Z,30.22
2018-07-23T19:44:51.472Z,29.99
2018-07-23T19:48:15.956Z,29.68
2018-07-23T19:51:40.450Z,29.80
2018-07-23T19:55:05.054Z,29.63
2018-07-23T19:58:29.620Z,29.57
2018-07-23T20:01:54.078Z,29.41
2018-07-23T20:05:18.539Z,29.37
2018-07-23T20:08:43.796Z,29.24
2018-07-23T20:12:08.321Z,29.08
2018-07-23T20:15:32.749Z,28.98
2018-07-23T20:18:57.271Z,28.73
2018-07-23T20:22:21.710Z,28.63
2018-07-23T20:25:46.224Z,28.45
2018-07-23T20:29:10.672Z,28.45
2018-07-23T20:32:35.132Z,28.33
2018-07-23T20:35:59.571Z,28.14
2018-07-23T20:39:24.099Z,28.16
2018-07-23T20:42:48.548Z,28.24
2018-07-23T20:46:13.008Z,27.90
2018-07-23T20:49:37.469Z,28.00
2018-07-23T20:53:01.911Z,27.94
2018-07-23T20:56:26.408Z,27.83
2018-07-23T20:59:50.858Z,27.63
2018-07-23T21:03:15.290Z,27.51
2018-07-23T21:06:39.758Z,27.39
2018-07-23T21:10:04.329Z,27.45
2018-07-23T21:13:28.761Z,27.11
2018-07-23T21:16:53.242Z,27.14
2018-07-23T21:20:17.761Z,26.94
2018-07-23T21:23:42.272Z,27.05
2018-07-23T21:27:06.772Z,27.04
2018-07-23T21:30:31.241Z,26.83
2018-07-23T21:33:55.703Z,26.86
2018-07-23T21:37:20.160Z,26.68
2018-07-23T21:40:44.574Z,26.68
2018-07-23T21:44:09.057Z,26.72
2018-07-23T21:47:33.529Z,26.64
2018-07-23T21:50:57.999Z,26.43
2018-07-23T21:54:22.521Z,26.32
2018-07-23T21:57:46.949Z,26.24
2018-07-23T22:01:11.447Z,26.27
2018-07-23T22:04:35.970Z,26.19
2018-07-23T22:08:00.445Z,26.20
2018-07-23T22:11:24.900Z,26.04
2018-07-23T22:14:49.372Z,26.00
2018-07-23T22:18:13.810Z,26.10
2018-07-23T22:21:38.287Z,26.02
2018-07-23T22:25:02.741Z,25.93
2018-07-23T22:28:27.197Z,25.74
2018-07-23T22:31:51.698Z,25.74
2018-07-23T22:35:16.152Z,25.45
2018-07-23T22:38:40.630Z,25.61
2018-07-23T22:42:05.267Z,25.49
2018-07-23T22:45:29.712Z,25.61
2018-07-23T22:48:54.192Z,25.45
2018-07-23T22:52:18.651Z,25.34
2018-07-23T22:55:43.102Z,25.25
2018-07-23T22:59:07.554Z,25.32
2018-07-23T23:02:31.985Z,25.12
2018-07-23T23:05:56.465Z,25.06
2018-07-23T23:09:20.882Z,25.01
2018-07-23T23:12:45.366Z,24.90
2018-07-23T23:16:09.854Z,25.00
2018-07-23T23:19:34.283Z,24.93
2018-07-23T23:22:58.731Z,24.83
2018-07-23T23:26:23.196Z,24.86
2018-07-23T23:29:47.657Z,24.84
2018-07-23T23:33:12.122Z,24.76
2018-07-23T23:36:36.593Z,24.63
2018-07-23T23:40:01.056Z,24.63
2018-07-23T23:43:25.526Z,24.53
2018-07-23T23:46:50.011Z,24.39
2018-07-23T23:50:14.485Z,24.31
2018-07-23T23:53:38.665Z,24.28
2018-07-23T23:57:03.153Z,24.40
